createdAt,value
2022-09-22T00:02:21.782Z,8.30
2022-09-22T00:05:29.132Z,8.25
2022-09-22T00:08:35.262Z,8.20
2022-09-22T00:11:50.932Z,8.14
2022-09-22T00:14:56.293Z,8.10
2022-09-22T00:18:02.931Z,8.08
2022-09-22T00:21:13.451Z,8.07
2022-09-22T00:24:20.268Z,8.08
2022-09-22T00:27:26.075Z,8.06
2022-09-22T00:30:33.082Z,8.05
2022-09-22T00:33:38.851Z,8.08
2022-09-22T00:36:44.030Z,8.10
2022-09-22T00:39:51.810Z,8.13
2022-09-22T00:42:58.927Z,8.13
2022-09-22T00:46:08.434Z,8.14
2022-09-22T00:49:18.635Z,8.13
2022-09-22T00:52:26.583Z,8.15
2022-09-22T00:56:01.285Z,8.19
2022-09-22T00:59:11.433Z,8.21
2022-09-22T01:02:17.753Z,8.25
2022-09-22T01:05:23.548Z,8.27
2022-09-22T01:08:31.616Z,8.28
2022-09-22T01:11:37.154Z,8.27
2022-09-22T01:14:58.378Z,8.25
2022-09-22T01:18:35.241Z,8.24
2022-09-22T01:22:07.337Z,8.25
2022-09-22T01:25:55.068Z,8.28
2022-09-22T01:29:42.826Z,8.29
2022-09-22T01:33:00.239Z,8.31
2022-09-22T01:36:18.337Z,8.30
2022-09-22T01:39:41.645Z,8.33
2022-09-22T01:43:12.160Z,8.35
2022-09-22T01:46:22.505Z,8.39
2022-09-22T01:49:29.259Z,8.39
2022-09-22T01:52:40.155Z,8.41
2022-09-22T01:55:54.487Z,8.42
2022-09-22T01:59:08.345Z,8.42
2022-09-22T02:02:20.107Z,8.43
2022-09-22T02:05:38.558Z,8.44
2022-09-22T02:09:01.132Z,8.44
2022-09-22T02:12:08.384Z,8.46
2022-09-22T02:15:15.824Z,8.44
2022-09-22T02:18:31.313Z,8.46
2022-09-22T02:21:36.575Z,8.47
2022-09-22T02:24:49.897Z,8.46
2022-09-22T02:27:55.427Z,8.48
2022-09-22T02:31:20.394Z,8.49
2022-09-22T02:34:09.476Z,8.50
2022-09-22T02:37:27.507Z,8.51
2022-09-22T02:40:59.801Z,8.50
2022-09-22T02:44:13.242Z,8.51
2022-09-22T02:47:36.399Z,8.50
2022-09-22T02:50:42.140Z,8.50
2022-09-22T02:53:49.500Z,8.48
2022-09-22T02:56:57.400Z,8.47
2022-09-22T03:00:03.146Z,8.44
2022-09-22T03:03:09.017Z,8.43
2022-09-22T03:06:15.322Z,8.41
2022-09-22T03:09:23.520Z,8.40
2022-09-22T03:12:28.953Z,8.40
2022-09-22T03:15:34.186Z,8.38
2022-09-22T03:18:40.582Z,8.38
2022-09-22T03:21:49.261Z,8.38
2022-09-22T03:24:55.533Z,8.39
2022-09-22T03:28:01.976Z,8.38
2022-09-22T03:31:07.300Z,8.40
2022-09-22T03:34:14.959Z,8.41
2022-09-22T03:37:19.935Z,8.44
2022-09-22T03:40:25.531Z,8.46
2022-09-22T03:43:31.513Z,8.48
2022-09-22T03:46:38.001Z,8.48
2022-09-22T03:49:43.562Z,8.49
2022-09-22T03:52:52.371Z,8.51
2022-09-22T03:55:57.702Z,8.53
2022-09-22T03:59:03.650Z,8.57
2022-09-22T04:02:11.239Z,8.61
2022-09-22T04:05:17.061Z,8.65
2022-09-22T04:08:23.171Z,8.72
2022-09-22T04:11:31.443Z,8.76
2022-09-22T04:14:37.248Z,8.84
2022-09-22T04:17:43.968Z,8.89
2022-09-22T04:20:52.486Z,8.96
2022-09-22T04:23:58.447Z,9.02
2022-09-22T04:27:21.259Z,9.06
2022-09-22T04:30:12.341Z,9.10
2022-09-22T04:33:18.444Z,9.16
2022-09-22T04:36:24.270Z,9.23
2022-09-22T04:39:29.721Z,9.29
2022-09-22T04:42:36.262Z,9.32
2022-09-22T04:45:42.588Z,9.36
2022-09-22T04:48:50.318Z,9.42
2022-09-22T04:51:57.674Z,9.46
2022-09-22T04:55:04.826Z,9.46
2022-09-22T04:58:16.134Z,9.45
2022-09-22T05:01:24.058Z,9.46
2022-09-22T05:04:31.135Z,9.49
2022-09-22T05:07:39.204Z,9.51
2022-09-22T05:10:46.119Z,9.56
2022-09-22T05:13:53.671Z,9.60
2022-09-22T05:17:02.310Z,9.62
2022-09-22T05:20:12.353Z,9.68
2022-09-22T05:23:17.986Z,9.77
2022-09-22T05:26:23.508Z,9.89
2022-09-22T05:29:29.788Z,10.00
2022-09-22T05:32:40.401Z,10.14
2022-09-22T05:35:45.124Z,10.31
2022-09-22T05:38:54.371Z,10.42
2022-09-22T05:42:02.359Z,10.51
2022-09-22T05:45:07.787Z,10.59
2022-09-22T05:48:14.361Z,10.66
2022-09-22T05:51:20.729Z,10.74
2022-09-22T05:54:27.650Z,10.79
2022-09-22T05:57:34.834Z,10.88
2022-09-22T06:00:40.382Z,10.97
2022-09-22T06:03:46.869Z,11.07
2022-09-22T06:06:52.809Z,11.13
2022-09-22T06:10:01.918Z,11.17
2022-09-22T06:13:16.994Z,11.25
2022-09-22T06:16:22.052Z,11.33
2022-09-22T06:19:28.209Z,11.41
2022-09-22T06:22:38.632Z,11.49
2022-09-22T06:25:45.271Z,11.59
2022-09-22T06:29:04.603Z,11.69
2022-09-22T06:32:11.072Z,11.88
2022-09-22T06:35:18.383Z,11.98
2022-09-22T06:38:24.807Z,12.12
2022-09-22T06:41:32.784Z,12.36
2022-09-22T06:44:39.646Z,12.62
2022-09-22T06:47:46.181Z,12.80
2022-09-22T06:50:53.805Z,12.94
2022-09-22T06:53:58.491Z,13.04
2022-09-22T06:57:07.250Z,13.15
2022-09-22T07:00:14.745Z,13.22
2022-09-22T07:03:36.132Z,13.32
2022-09-22T07:06:44.335Z,13.40
2022-09-22T07:09:49.494Z,13.50
2022-09-22T07:12:59.833Z,13.62
2022-09-22T07:16:31.623Z,13.75
2022-09-22T07:19:39.697Z,13.84
2022-09-22T07:22:50.436Z,13.92
2022-09-22T07:26:10.004Z,14.02
2022-09-22T07:29:22.759Z,14.10
2022-09-22T07:32:30.236Z,14.18
2022-09-22T07:35:51.850Z,14.26
2022-09-22T07:39:47.544Z,14.36
2022-09-22T07:43:05.054Z,14.43
2022-09-22T07:46:14.000Z,14.53
2022-09-22T07:49:26.272Z,14.59
2022-09-22T07:52:33.111Z,14.72
2022-09-22T07:55:45.851Z,14.89
2022-09-22T07:58:55.227Z,15.06
2022-09-22T08:02:02.601Z,15.16
2022-09-22T08:05:10.368Z,15.27
2022-09-22T08:08:15.984Z,15.44
2022-09-22T08:11:25.258Z,15.48
2022-09-22T08:14:32.276Z,15.44
2022-09-22T08:17:38.194Z,15.38
2022-09-22T08:20:44.995Z,15.34
2022-09-22T08:23:51.943Z,15.35
2022-09-22T08:27:03.266Z,15.44
2022-09-22T08:30:09.171Z,15.57
2022-09-22T08:33:14.779Z,15.63
2022-09-22T08:36:20.563Z,15.66
2022-09-22T08:39:27.836Z,15.67
2022-09-22T08:42:35.291Z,15.70
2022-09-22T08:45:53.269Z,15.71
2022-09-22T08:49:19.203Z,15.70
2022-09-22T08:52:56.061Z,15.64
2022-09-22T08:56:17.856Z,15.59
2022-09-22T08:59:41.859Z,15.51
2022-09-22T09:03:14.289Z,15.44
2022-09-22T09:06:24.807Z,15.45
2022-09-22T09:09:57.057Z,15.52
2022-09-22T09:13:29.540Z,15.62
2022-09-22T09:17:08.482Z,15.78
2022-09-22T09:20:24.981Z,16.00
2022-09-22T09:26:48.922Z,16.42
2022-09-22T09:30:03.958Z,16.66
2022-09-22T09:33:15.366Z,16.90
2022-09-22T09:36:29.414Z,17.07
2022-09-22T09:39:49.525Z,17.21
2022-09-22T09:42:56.535Z,17.32
2022-09-22T09:46:15.645Z,17.37
2022-09-22T09:49:31.083Z,17.40
2022-09-22T09:52:36.593Z,17.45
2022-09-22T09:55:45.846Z,17.46
2022-09-22T09:59:24.895Z,17.34
2022-09-22T10:02:35.104Z,17.30
2022-09-22T10:05:39.662Z,17.36
2022-09-22T10:08:59.915Z,17.38
2022-09-22T10:12:18.290Z,17.36
2022-09-22T10:15:35.156Z,17.31
2022-09-22T10:18:47.077Z,17.25
2022-09-22T10:21:53.212Z,17.18
2022-09-22T10:25:09.451Z,17.13
2022-09-22T10:28:33.294Z,17.14
2022-09-22T10:31:44.694Z,17.16
2022-09-22T10:34:59.061Z,17.18
2022-09-22T10:38:13.627Z,17.23
2022-09-22T10:41:26.196Z,17.19
2022-09-22T10:44:39.412Z,17.12
2022-09-22T10:48:12.434Z,17.22
2022-09-22T10:51:49.818Z,17.37
2022-09-22T10:55:09.981Z,17.49
2022-09-22T10:58:26.548Z,17.44
2022-09-22T11:02:33.259Z,17.35
2022-09-22T11:10:31.020Z,17.23
2022-09-22T11:18:39.701Z,17.14
2022-09-22T11:22:01.704Z,17.16
2022-09-22T11:25:18.101Z,17.20
2022-09-22T11:29:02.077Z,17.26
2022-09-22T11:32:25.901Z,17.31
2022-09-22T11:35:48.210Z,17.55
2022-09-22T11:39:32.148Z,17.89
2022-09-22T11:42:39.787Z,17.98
2022-09-22T11:46:33.424Z,17.89
2022-09-22T11:50:12.205Z,17.80
2022-09-22T11:53:49.704Z,17.70
2022-09-22T11:57:10.507Z,17.64
2022-09-22T12:00:36.189Z,17.61
2022-09-22T12:03:57.756Z,17.52
2022-09-22T12:07:04.964Z,17.46
2022-09-22T12:10:17.502Z,17.48
2022-09-22T12:13:43.037Z,17.52
2022-09-22T12:17:21.442Z,17.59
2022-09-22T12:21:04.096Z,17.82
2022-09-22T12:24:10.123Z,18.05
2022-09-22T12:27:36.972Z,18.19
2022-09-22T12:30:44.926Z,18.11
2022-09-22T12:33:51.992Z,18.05
2022-09-22T12:36:59.694Z,18.02
2022-09-22T12:40:05.398Z,17.95
2022-09-22T12:43:10.880Z,17.84
2022-09-22T12:46:22.252Z,17.72
2022-09-22T12:49:35.638Z,17.62
2022-09-22T12:53:02.886Z,17.59
2022-09-22T12:56:17.750Z,17.58
2022-09-22T13:00:04.377Z,17.62
2022-09-22T13:05:46.547Z,17.57
2022-09-22T13:08:53.325Z,17.52
2022-09-22T13:12:28.483Z,17.43
2022-09-22T13:18:05.534Z,17.31
2022-09-22T13:23:41.896Z,17.32
2022-09-22T13:26:53.693Z,17.33
2022-09-22T13:30:14.447Z,17.34
2022-09-22T13:33:37.932Z,17.38
2022-09-22T13:36:43.189Z,17.39
2022-09-22T13:39:56.000Z,17.46
2022-09-22T13:43:01.302Z,17.54
2022-09-22T13:46:10.159Z,17.55
2022-09-22T13:51:47.786Z,17.52
2022-09-22T13:54:52.995Z,17.50
2022-09-22T14:01:01.449Z,17.30
2022-09-22T14:03:33.806Z,17.22
2022-09-22T14:09:09.005Z,17.06
2022-09-22T14:14:46.331Z,16.98
2022-09-22T14:20:23.767Z,16.87
2022-09-22T14:23:42.621Z,16.83
2022-09-22T14:26:41.280Z,16.79
2022-09-22T14:29:53.205Z,16.77
2022-09-22T14:35:50.678Z,16.73
2022-09-22T14:41:38.112Z,16.67
2022-09-22T14:45:05.090Z,16.64
2022-09-22T14:48:31.950Z,16.61
2022-09-22T14:54:15.533Z,16.48
2022-09-22T15:00:10.058Z,16.37
2022-09-22T15:03:15.807Z,16.32
2022-09-22T15:06:25.354Z,16.24
2022-09-22T15:12:04.239Z,16.05
2022-09-22T15:18:16.310Z,15.88
2022-09-22T15:21:29.384Z,15.80
2022-09-22T15:24:36.960Z,15.68
2022-09-22T15:27:45.262Z,15.54
2022-09-22T15:30:51.756Z,15.42
2022-09-22T15:36:28.559Z,15.22
2022-09-22T15:42:08.398Z,15.08
2022-09-22T15:47:41.662Z,14.90
2022-09-22T15:50:47.444Z,14.83
2022-09-22T15:56:35.811Z,14.66
2022-09-22T15:59:54.546Z,14.60
2022-09-22T16:02:59.531Z,14.51
2022-09-22T16:06:09.176Z,14.45
2022-09-22T16:11:43.259Z,14.29
2022-09-22T16:17:20.943Z,14.17
2022-09-22T16:22:58.445Z,14.03
2022-09-22T16:28:35.514Z,13.90
2022-09-22T16:34:13.468Z,13.76
2022-09-22T16:39:48.022Z,13.67
2022-09-22T16:42:48.099Z,13.65
2022-09-22T16:48:26.695Z,13.58
2022-09-22T16:54:03.436Z,13.51
2022-09-22T16:57:09.594Z,13.50
2022-09-22T17:02:48.693Z,13.41
2022-09-22T17:08:27.774Z,13.32
2022-09-22T17:14:03.541Z,13.24
2022-09-22T17:17:11.913Z,13.22
2022-09-22T17:22:47.083Z,13.17
2022-09-22T17:28:28.243Z,13.15
2022-09-22T17:34:03.577Z,13.12
2022-09-22T17:39:42.990Z,13.04
2022-09-22T17:42:48.378Z,13.03
2022-09-22T17:51:08.609Z,12.87
2022-09-22T17:54:30.998Z,12.83
2022-09-22T17:57:45.468Z,12.76
2022-09-22T18:00:51.886Z,12.74
2022-09-22T18:03:37.562Z,12.74
2022-09-22T18:06:43.835Z,12.74
2022-09-22T18:09:50.606Z,12.74
2022-09-22T18:18:01.237Z,12.65
2022-09-22T18:23:38.226Z,12.58
2022-09-22T18:26:45.949Z,12.56
2022-09-22T18:32:21.168Z,12.50
2022-09-22T18:37:57.976Z,12.45
2022-09-22T18:41:04.648Z,12.41
2022-09-22T18:46:40.866Z,12.35
2022-09-22T18:49:47.499Z,12.33
2022-09-22T18:55:26.297Z,12.28
2022-09-22T19:01:07.422Z,12.23
2022-09-22T19:12:00.291Z,12.06
2022-09-22T19:17:36.770Z,11.99
2022-09-22T19:20:44.284Z,11.97
2022-09-22T19:23:50.978Z,11.94
2022-09-22T19:29:28.854Z,11.88
2022-09-22T19:32:34.556Z,11.87
2022-09-22T19:35:40.963Z,11.85
2022-09-22T19:38:46.892Z,11.83
2022-09-22T19:44:24.794Z,11.83
2022-09-22T19:50:02.041Z,11.83
2022-09-22T19:53:08.348Z,11.82
2022-09-22T19:58:43.318Z,11.81
2022-09-22T20:04:18.797Z,11.81
2022-09-22T20:07:24.890Z,11.81
2022-09-22T20:12:59.901Z,11.79
2022-09-22T20:18:41.248Z,11.74
2022-09-22T20:24:14.691Z,11.73
2022-09-22T20:27:22.489Z,11.73
2022-09-22T20:32:59.193Z,11.72
2022-09-22T20:38:35.395Z,11.70
2022-09-22T20:41:41.439Z,11.71
2022-09-22T20:44:50.484Z,11.68
2022-09-22T20:52:57.538Z,11.57
2022-09-22T20:56:18.920Z,11.53
2022-09-22T20:59:24.970Z,11.48
2022-09-22T21:02:34.206Z,11.46
2022-09-22T21:05:43.339Z,11.45
2022-09-22T21:11:27.316Z,11.39
2022-09-22T21:14:18.296Z,11.38
2022-09-22T21:17:06.662Z,11.34
2022-09-22T21:20:13.923Z,11.33
2022-09-22T21:23:19.614Z,11.30
2022-09-22T21:29:00.662Z,11.26
2022-09-22T21:34:39.334Z,11.19
2022-09-22T21:37:44.715Z,11.17
2022-09-22T21:40:51.249Z,11.15
2022-09-22T21:43:58.122Z,11.14
2022-09-22T21:47:05.452Z,11.14
2022-09-22T21:50:11.960Z,11.11
2022-09-22T21:55:48.177Z,11.03
2022-09-22T22:01:26.723Z,10.93
2022-09-22T22:07:02.261Z,10.87
2022-09-22T22:10:09.935Z,10.84
2022-09-22T22:15:48.229Z,10.80
2022-09-22T22:24:00.417Z,10.79
2022-09-22T22:29:39.995Z,10.78
2022-09-22T22:32:47.306Z,10.76
2022-09-22T22:35:23.358Z,10.72
2022-09-22T22:38:06.685Z,10.70
2022-09-22T22:41:20.634Z,10.67
2022-09-22T22:46:55.628Z,10.61
2022-09-22T22:52:34.889Z,10.51
2022-09-22T22:58:10.380Z,10.44
2022-09-22T23:01:25.081Z,10.42
2022-09-22T23:04:16.692Z,10.39
2022-09-22T23:09:54.986Z,10.35
2022-09-22T23:15:31.036Z,10.34
2022-09-22T23:18:37.579Z,10.35
2022-09-22T23:24:13.792Z,10.34
2022-09-22T23:27:19.606Z,10.35
2022-09-22T23:30:18.873Z,10.34
2022-09-22T23:33:26.690Z,10.33
2022-09-22T23:39:02.114Z,10.27
2022-09-22T23:44:37.322Z,10.22
2022-09-22T23:47:42.823Z,10.20
2022-09-22T23:53:17.930Z,10.14
2022-09-22T23:56:25.066Z,10.10
